Time;durP1;ratioP1;P1;durP2;ratioP2;P2;SDS_P1;SDS_P2;PMS_P1;PMS_P2;Temp;Humidity;BMP_temperature;BMP_pressure;BME280_temperature;BME280_humidity;BME280_pressure;Samples;Min_cycle;Max_cycle;Signal;HPM_P1;HPM_P2
2021/08/23 00:02:19;;;;;;;9.77;7.28;;;18.20;67.20;;;;;;5057115;28;20086;-33
2021/08/23 00:04:45;;;;;;;9.27;7.38;;;18.20;67.20;;;;;;5057310;28;20427;-34
2021/08/23 00:07:11;;;;;;;9.55;7.20;;;18.10;67.20;;;;;;5057055;28;20036;-33
2021/08/23 00:09:37;;;;;;;10.32;7.57;;;18.10;67.30;;;;;;5057529;28;20425;-36
2021/08/23 00:12:03;;;;;;;10.05;7.43;;;18.10;67.30;;;;;;5057243;28;20113;-34
2021/08/23 00:14:29;;;;;;;8.80;6.95;;;18.10;67.40;;;;;;5057142;28;20435;-34
2021/08/23 00:16:55;;;;;;;10.35;8.45;;;18.10;67.40;;;;;;5056850;28;20055;-36
2021/08/23 00:19:21;;;;;;;8.60;7.45;;;18.10;67.40;;;;;;5057195;28;20037;-35
2021/08/23 00:21:49;;;;;;;12.43;8.80;;;18.10;67.50;;;;;;5056915;28;20376;-35
2021/08/23 00:24:22;;;;;;;9.95;8.95;;;18.00;67.50;;;;;;5056920;28;20432;-34
2021/08/23 00:26:55;;;;;;;12.68;7.97;;;18.00;67.50;;;;;;5056871;28;20082;-34
2021/08/23 00:29:22;;;;;;;11.35;9.52;;;18.00;67.50;;;;;;5056980;28;20365;-35
2021/08/23 00:31:48;;;;;;;9.98;7.72;;;18.00;67.60;;;;;;5057035;28;20056;-33
2021/08/23 00:34:15;;;;;;;12.15;8.65;;;18.00;67.60;;;;;;5056956;28;20385;-34
2021/08/23 00:36:41;;;;;;;12.57;10.25;;;18.00;67.70;;;;;;5056667;28;20056;-34
2021/08/23 00:39:08;;;;;;;12.00;7.65;;;18.00;67.70;;;;;;5056908;28;20017;-34
2021/08/23 00:41:37;;;;;;;10.07;7.65;;;18.00;67.60;;;;;;5056337;28;20337;-35
2021/08/23 00:44:04;;;;;;;11.53;8.93;;;17.90;67.60;;;;;;5056612;28;20033;-35
2021/08/23 00:46:30;;;;;;;12.18;8.75;;;17.90;67.60;;;;;;5056597;28;20262;-33
2021/08/23 00:48:56;;;;;;;12.25;9.05;;;17.90;67.70;;;;;;5055411;28;20033;-35
2021/08/23 00:51:22;;;;;;;14.32;9.20;;;17.90;67.80;;;;;;5056835;28;20103;-34
2021/08/23 00:53:48;;;;;;;10.20;8.60;;;17.80;67.90;;;;;;5056129;28;20368;-33
2021/08/23 00:56:17;;;;;;;13.52;9.02;;;17.80;68.00;;;;;;5056770;28;20377;-34
2021/08/23 00:58:43;;;;;;;9.43;7.75;;;17.80;68.00;;;;;;5056401;28;20021;-35
2021/08/23 01:01:33;;;;;;;9.75;8.07;;;17.80;68.00;;;;;;5056021;28;20032;-34
2021/08/23 01:04:07;;;;;;;9.20;7.45;;;17.80;67.90;;;;;;5056033;28;20025;-35
2021/08/23 01:06:33;;;;;;;11.70;9.23;;;17.70;68.00;;;;;;5056213;28;20033;-35
2021/08/23 01:09:04;;;;;;;11.07;9.95;;;17.70;68.10;;;;;;5055954;28;20082;-36
2021/08/23 01:11:35;;;;;;;10.35;7.25;;;17.70;68.20;;;;;;5056531;28;20043;-34
2021/08/23 01:14:02;;;;;;;10.35;9.02;;;17.70;68.20;;;;;;5055865;28;20029;-35
2021/08/23 01:16:28;;;;;;;11.02;9.88;;;17.70;68.10;;;;;;5055951;28;20049;-35
2021/08/23 01:18:54;;;;;;;11.18;7.07;;;17.70;68.10;;;;;;5056203;28;20032;-36
2021/08/23 01:21:24;;;;;;;10.05;8.10;;;17.60;68.00;;;;;;5055977;28;20052;-34
2021/08/23 01:23:53;;;;;;;11.73;10.68;;;17.60;68.10;;;;;;5056067;28;20059;-34
2021/08/23 01:26:25;;;;;;;11.65;8.45;;;17.60;68.20;;;;;;5055951;28;20075;-34
2021/08/23 01:29:03;;;;;;;11.27;9.23;;;17.50;68.10;;;;;;5055935;28;20151;-33
2021/08/23 01:31:35;;;;;;;11.43;8.35;;;17.60;68.20;;;;;;5056102;28;20417;-33
2021/08/23 01:34:01;;;;;;;10.50;8.55;;;17.50;68.10;;;;;;5055835;28;20025;-35
2021/08/23 01:36:27;;;;;;;13.00;7.50;;;17.50;68.10;;;;;;5055793;28;20032;-35
2021/08/23 01:38:53;;;;;;;9.07;8.18;;;17.50;68.10;;;;;;5055487;28;20021;-34
2021/08/23 01:41:18;;;;;;;9.73;8.45;;;17.40;68.10;;;;;;5055952;28;20036;-35
2021/08/23 01:43:44;;;;;;;13.63;8.68;;;17.40;68.20;;;;;;5055613;28;20029;-35
2021/08/23 01:46:10;;;;;;;10.95;7.88;;;17.40;68.30;;;;;;5056171;28;20115;-34
2021/08/23 01:48:35;;;;;;;16.50;9.50;;;17.40;68.30;;;;;;5055519;28;20036;-34
2021/08/23 01:51:01;;;;;;;9.70;7.88;;;17.40;68.30;;;;;;5056134;28;20048;-35
2021/08/23 01:53:27;;;;;;;9.55;7.53;;;17.30;68.20;;;;;;5055686;28;20033;-34
2021/08/23 01:55:53;;;;;;;12.75;7.97;;;17.30;68.20;;;;;;5056141;28;20283;-35
2021/08/23 01:58:19;;;;;;;10.10;7.82;;;17.30;68.20;;;;;;5055668;28;20025;-33
2021/08/23 02:00:45;;;;;;;10.07;7.93;;;17.30;68.20;;;;;;5059114;28;20053;-34
2021/08/23 02:03:10;;;;;;;9.68;8.60;;;17.30;68.20;;;;;;5059327;28;20033;-36
2021/08/23 02:05:36;;;;;;;11.70;7.70;;;17.20;68.10;;;;;;5059841;28;20077;-35
2021/08/23 02:08:02;;;;;;;9.63;7.95;;;17.20;68.10;;;;;;5059759;28;20043;-33
2021/08/23 02:10:27;;;;;;;13.32;11.93;;;17.20;68.00;;;;;;5059981;28;20127;-33
2021/08/23 02:12:54;;;;;;;9.27;8.02;;;17.20;67.90;;;;;;5059293;28;20079;-34
2021/08/23 02:15:19;;;;;;;9.73;8.70;;;17.10;67.80;;;;;;5059232;28;20459;-36
2021/08/23 02:17:45;;;;;;;11.38;8.43;;;17.10;67.80;;;;;;5059147;28;20037;-34
2021/08/23 02:20:12;;;;;;;11.05;9.80;;;17.10;67.70;;;;;;5059752;28;20029;-36
2021/08/23 02:22:40;;;;;;;10.60;8.30;;;17.10;67.60;;;;;;5059233;28;20094;-35
2021/08/23 02:25:07;;;;;;;10.48;7.72;;;17.00;67.50;;;;;;5059179;28;20048;-35
2021/08/23 02:27:33;;;;;;;11.93;9.13;;;17.00;67.50;;;;;;5058983;28;20157;-33
2021/08/23 02:29:59;;;;;;;12.85;9.57;;;17.00;67.50;;;;;;5059446;28;20040;-35
2021/08/23 02:32:25;;;;;;;11.95;10.00;;;17.00;67.40;;;;;;5058863;28;20032;-34
2021/08/23 02:34:51;;;;;;;15.88;9.90;;;17.00;67.40;;;;;;5059453;28;20112;-36
2021/08/23 02:37:16;;;;;;;11.93;8.85;;;16.90;67.40;;;;;;5059107;28;20032;-33
2021/08/23 02:39:42;;;;;;;12.07;9.30;;;16.90;67.40;;;;;;5059356;28;20047;-35
2021/08/23 02:42:08;;;;;;;13.55;10.93;;;16.90;67.50;;;;;;5058576;28;20028;-34
2021/08/23 02:44:34;;;;;;;14.27;10.90;;;16.90;67.50;;;;;;5058880;28;20044;-36
2021/08/23 02:47:00;;;;;;;12.75;9.43;;;16.90;67.50;;;;;;5058663;28;20036;-34
2021/08/23 02:49:26;;;;;;;12.25;10.43;;;16.80;67.50;;;;;;5058652;28;20061;-34
2021/08/23 02:51:53;;;;;;;19.70;12.10;;;16.80;67.50;;;;;;5058892;28;20103;-34
2021/08/23 02:54:19;;;;;;;17.95;10.45;;;16.80;67.50;;;;;;5058966;28;20049;-34
2021/08/23 02:56:45;;;;;;;13.27;10.25;;;16.80;67.60;;;;;;5058588;28;20032;-33
2021/08/23 02:59:11;;;;;;;11.23;8.27;;;16.80;67.70;;;;;;5058781;28;20037;-33
2021/08/23 03:01:37;;;;;;;12.93;9.75;;;16.70;67.70;;;;;;5058367;28;20025;-34
2021/08/23 03:04:02;;;;;;;13.18;10.07;;;16.70;67.70;;;;;;5058692;28;20055;-34
2021/08/23 03:06:28;;;;;;;12.68;10.32;;;16.70;67.70;;;;;;5058833;28;20352;-34
2021/08/23 03:08:54;;;;;;;13.15;10.32;;;16.70;67.80;;;;;;5058847;28;20062;-34
2021/08/23 03:11:19;;;;;;;13.52;11.77;;;16.70;67.80;;;;;;5057487;28;20056;-35
2021/08/23 03:13:45;;;;;;;16.30;10.52;;;16.70;67.90;;;;;;5058101;28;20033;-35
2021/08/23 03:16:12;;;;;;;14.80;10.32;;;16.70;67.90;;;;;;5058417;28;20506;-35
2021/08/23 03:18:38;;;;;;;12.50;8.82;;;16.70;68.00;;;;;;5058383;28;20289;-35
2021/08/23 03:21:05;;;;;;;13.38;10.05;;;16.70;68.00;;;;;;5058717;28;20422;-34
2021/08/23 03:23:32;;;;;;;11.82;9.23;;;16.70;68.00;;;;;;5058290;28;20313;-34
2021/08/23 03:26:02;;;;;;;11.40;9.45;;;16.70;68.10;;;;;;5058517;28;20036;-33
2021/08/23 03:28:27;;;;;;;19.67;10.73;;;16.70;68.20;;;;;;5057779;28;20074;-34
2021/08/23 03:30:53;;;;;;;12.25;9.10;;;16.70;68.20;;;;;;5058402;28;20032;-33
2021/08/23 03:33:19;;;;;;;12.90;10.00;;;16.70;68.30;;;;;;5057704;28;20043;-35
2021/08/23 03:35:44;;;;;;;16.08;10.13;;;16.70;68.30;;;;;;5058298;28;20021;-34
2021/08/23 03:38:11;;;;;;;13.25;9.10;;;16.70;68.30;;;;;;5058048;28;20021;-34
2021/08/23 03:40:37;;;;;;;13.00;9.30;;;16.70;68.30;;;;;;5058013;28;20036;-34
2021/08/23 03:43:02;;;;;;;15.73;10.32;;;16.70;68.30;;;;;;5057541;28;20033;-35
2021/08/23 03:45:28;;;;;;;17.88;11.15;;;16.70;68.30;;;;;;5057950;28;20074;-35
2021/08/23 03:47:54;;;;;;;17.63;11.80;;;16.70;68.40;;;;;;5057196;28;20059;-36
2021/08/23 03:50:19;;;;;;;16.70;12.55;;;16.80;68.50;;;;;;5058023;28;20040;-33
2021/08/23 03:52:45;;;;;;;20.25;13.57;;;16.80;68.50;;;;;;5057820;28;20136;-35
2021/08/23 03:55:11;;;;;;;21.85;14.65;;;16.80;68.50;;;;;;5057704;28;20029;-34
2021/08/23 03:57:37;;;;;;;19.85;13.48;;;16.90;68.60;;;;;;5057476;28;20029;-33
2021/08/23 04:00:07;;;;;;;20.67;13.43;;;16.90;68.50;;;;;;5057833;28;20057;-35
2021/08/23 04:02:33;;;;;;;18.17;12.18;;;17.00;68.30;;;;;;5057287;28;20051;-35
2021/08/23 04:04:59;;;;;;;14.38;10.88;;;17.00;68.30;;;;;;5057483;28;20037;-35
2021/08/23 04:07:25;;;;;;;16.83;12.68;;;17.00;68.20;;;;;;5057180;28;20036;-36
2021/08/23 04:09:51;;;;;;;15.70;11.80;;;17.10;68.20;;;;;;5057427;28;20040;-35
2021/08/23 04:12:16;;;;;;;18.38;11.20;;;17.20;68.00;;;;;;5057575;28;20037;-34
2021/08/23 04:14:42;;;;;;;16.65;11.75;;;17.20;67.90;;;;;;5057079;28;20031;-35
2021/08/23 04:17:08;;;;;;;17.35;11.75;;;17.30;67.70;;;;;;5056717;28;20049;-33
2021/08/23 04:19:34;;;;;;;16.80;10.80;;;17.30;67.60;;;;;;5056987;28;20417;-35
2021/08/23 04:22:00;;;;;;;21.80;9.95;;;17.40;67.20;;;;;;5056284;28;20064;-35
2021/08/23 04:24:26;;;;;;;13.20;10.55;;;17.50;66.70;;;;;;5056861;28;20060;-33
2021/08/23 04:26:52;;;;;;;17.33;10.35;;;17.50;66.40;;;;;;5056795;28;20112;-35
2021/08/23 04:29:18;;;;;;;14.55;9.73;;;17.60;66.40;;;;;;5055596;28;20112;-34
2021/08/23 04:31:44;;;;;;;14.68;9.75;;;17.70;66.30;;;;;;5056998;28;20025;-34
2021/08/23 04:34:09;;;;;;;16.55;10.20;;;17.80;66.20;;;;;;5056535;28;20052;-36
2021/08/23 04:36:36;;;;;;;15.75;8.80;;;17.90;66.00;;;;;;5056567;28;20025;-35
2021/08/23 04:39:03;;;;;;;13.40;8.88;;;18.00;66.10;;;;;;5056454;28;20025;-34
2021/08/23 04:41:35;;;;;;;15.95;9.52;;;18.00;66.00;;;;;;5056698;28;20033;-36
2021/08/23 04:44:01;;;;;;;14.15;9.55;;;18.10;65.90;;;;;;5056442;28;20028;-33
2021/08/23 04:46:26;;;;;;;12.95;9.15;;;18.20;65.80;;;;;;5057176;28;20037;-36
2021/08/23 04:48:52;;;;;;;22.35;10.45;;;18.30;65.60;;;;;;5056179;28;20103;-34
2021/08/23 04:51:18;;;;;;;18.25;11.70;;;18.40;65.20;;;;;;5056515;28;20039;-35
2021/08/23 04:53:43;;;;;;;16.50;9.65;;;18.50;64.70;;;;;;5056288;28;20426;-34
2021/08/23 04:56:10;;;;;;;18.70;10.25;;;18.60;64.60;;;;;;5056197;28;20027;-36
2021/08/23 04:58:36;;;;;;;19.17;10.10;;;18.70;64.00;;;;;;5056010;28;20029;-34
2021/08/23 05:01:02;;;;;;;19.60;8.85;;;18.80;63.30;;;;;;5056458;28;20025;-34
2021/08/23 05:03:28;;;;;;;13.32;9.88;;;18.90;63.10;;;;;;5054822;28;20064;-34
2021/08/23 05:05:53;;;;;;;18.00;10.57;;;19.00;63.00;;;;;;5056304;28;20301;-34
2021/08/23 05:08:19;;;;;;;16.88;9.77;;;19.10;63.00;;;;;;5055814;28;20144;-36
2021/08/23 05:10:46;;;;;;;20.35;12.63;;;19.20;63.00;;;;;;5056121;28;20120;-35
2021/08/23 05:13:11;;;;;;;15.75;9.10;;;19.30;63.00;;;;;;5055683;28;20032;-34
2021/08/23 05:15:37;;;;;;;14.18;9.98;;;19.30;62.40;;;;;;5056019;28;20079;-34
2021/08/23 05:18:03;;;;;;;12.52;9.32;;;19.40;62.00;;;;;;5056389;28;20029;-34
2021/08/23 05:20:28;;;;;;;24.38;10.30;;;19.50;61.60;;;;;;5056050;28;20036;-34
2021/08/23 05:22:54;;;;;;;16.08;7.97;;;19.60;61.50;;;;;;5055689;28;20033;-36
2021/08/23 05:25:20;;;;;;;9.88;7.05;;;19.70;61.20;;;;;;5055846;28;20082;-35
2021/08/23 05:27:46;;;;;;;12.23;8.88;;;19.80;61.20;;;;;;5055735;28;20040;-34
2021/08/23 05:30:12;;;;;;;12.43;7.03;;;19.90;61.00;;;;;;5056165;28;20072;-34
2021/08/23 05:32:38;;;;;;;10.52;6.35;;;20.00;60.90;;;;;;5055431;28;20467;-36
2021/08/23 05:35:04;;;;;;;9.93;6.32;;;20.10;60.80;;;;;;5055427;28;20414;-36
2021/08/23 05:37:30;;;;;;;10.13;6.00;;;20.20;60.10;;;;;;5055411;28;20029;-35
2021/08/23 05:39:56;;;;;;;5.80;4.70;;;20.30;59.00;;;;;;5055700;28;20033;-34
2021/08/23 05:42:21;;;;;;;8.07;5.95;;;20.40;58.40;;;;;;5055040;28;20029;-36
2021/08/23 05:44:47;;;;;;;10.30;5.93;;;20.50;58.10;;;;;;5055658;28;20340;-36
2021/08/23 05:47:13;;;;;;;9.40;6.97;;;20.60;57.90;;;;;;5055457;28;20498;-34
2021/08/23 05:49:38;;;;;;;9.43;6.28;;;20.70;57.70;;;;;;5055296;28;20341;-35
2021/08/23 05:52:04;;;;;;;9.25;5.68;;;20.80;57.30;;;;;;5055291;28;20029;-36
2021/08/23 05:54:30;;;;;;;8.90;5.97;;;20.90;57.20;;;;;;5055137;28;20029;-35
2021/08/23 05:56:59;;;;;;;7.28;5.75;;;21.00;56.70;;;;;;5055319;28;20024;-34
2021/08/23 05:59:25;;;;;;;12.63;6.30;;;21.00;56.40;;;;;;5055322;28;20040;-35
2021/08/23 06:01:55;;;;;;;7.78;6.80;;;21.20;56.50;;;;;;5055024;28;20021;-36
2021/08/23 06:04:24;;;;;;;10.20;7.97;;;21.20;56.20;;;;;;5055192;28;20420;-34
2021/08/23 06:06:50;;;;;;;10.95;7.38;;;21.30;56.40;;;;;;5055179;28;20032;-36
2021/08/23 06:09:17;;;;;;;7.20;6.25;;;21.40;56.20;;;;;;5054937;28;20049;-36
2021/08/23 06:11:43;;;;;;;10.70;8.20;;;21.50;56.30;;;;;;5055508;28;20366;-34
2021/08/23 06:14:08;;;;;;;19.30;13.13;;;21.60;56.20;;;;;;5055082;28;20124;-36
2021/08/23 06:16:34;;;;;;;21.90;11.25;;;21.70;56.10;;;;;;5054830;28;20094;-36
2021/08/23 06:19:00;;;;;;;12.40;8.20;;;21.80;56.10;;;;;;5055052;28;20117;-37
2021/08/23 06:21:26;;;;;;;41.97;19.50;;;21.90;56.00;;;;;;5055095;28;20358;-34
2021/08/23 06:23:52;;;;;;;43.97;19.55;;;22.00;54.90;;;;;;5054495;28;20033;-34
2021/08/23 06:26:17;;;;;;;79.13;35.10;;;22.10;54.90;;;;;;5055224;28;20108;-34
2021/08/23 06:28:43;;;;;;;72.82;30.25;;;22.10;54.60;;;;;;5055098;28;20105;-36
2021/08/23 06:31:09;;;;;;;69.55;30.88;;;22.20;54.70;;;;;;5055180;28;20029;-34
2021/08/23 06:33:35;;;;;;;100.68;42.50;;;22.40;54.80;;;;;;5055006;28;20123;-36
2021/08/23 06:36:01;;;;;;;97.10;42.28;;;22.40;54.40;;;;;;5055506;28;20025;-34
2021/08/23 06:38:26;;;;;;;136.63;57.58;;;22.50;53.30;;;;;;5055138;28;20025;-36
2021/08/23 06:40:52;;;;;;;180.45;70.75;;;22.60;52.70;;;;;;5055550;28;20475;-36
2021/08/23 06:43:18;;;;;;;168.15;70.15;;;22.70;52.20;;;;;;5054685;28;20025;-34
2021/08/23 06:45:44;;;;;;;270.48;115.05;;;22.70;52.30;;;;;;5056583;28;20380;-35
2021/08/23 06:48:09;;;;;;;267.73;111.10;;;22.80;52.30;;;;;;5058813;28;20053;-36
2021/08/23 06:50:35;;;;;;;155.07;67.00;;;22.90;52.00;;;;;;5058817;28;20393;-34
2021/08/23 06:53:03;;;;;;;92.95;42.92;;;23.00;51.30;;;;;;5058304;28;20415;-34
2021/08/23 06:55:29;;;;;;;99.88;44.70;;;23.00;50.40;;;;;;5058655;28;20503;-34
2021/08/23 06:57:54;;;;;;;83.90;38.22;;;23.10;50.40;;;;;;5058354;28;20056;-36
2021/08/23 07:00:20;;;;;;;37.45;17.52;;;23.20;50.40;;;;;;5058716;28;20348;-36
2021/08/23 07:02:46;;;;;;;48.28;22.52;;;23.20;50.20;;;;;;5058141;28;20078;-34
2021/08/23 07:05:11;;;;;;;44.70;19.35;;;23.40;50.30;;;;;;5058573;28;20393;-36
2021/08/23 07:07:37;;;;;;;40.50;18.65;;;23.40;49.70;;;;;;5058074;28;20033;-36
2021/08/23 07:10:03;;;;;;;37.67;18.95;;;23.50;49.30;;;;;;5058460;28;20444;-36
2021/08/23 07:12:29;;;;;;;53.72;22.70;;;23.50;49.50;;;;;;5056162;28;20064;-34
2021/08/23 07:14:55;;;;;;;38.15;16.27;;;23.50;49.10;;;;;;5057182;28;20043;-36
2021/08/23 07:17:21;;;;;;;37.95;15.50;;;23.60;49.00;;;;;;5057685;28;20400;-34
2021/08/23 07:19:46;;;;;;;30.63;13.50;;;23.70;49.20;;;;;;5058047;28;20040;-37
2021/08/23 07:22:18;;;;;;;19.38;9.20;;;23.80;49.10;;;;;;5057844;28;20029;-37
2021/08/23 07:24:45;;;;;;;18.67;8.68;;;23.80;48.40;;;;;;5057622;28;20124;-34
2021/08/23 07:27:11;;;;;;;7.05;5.10;;;23.90;48.40;;;;;;5057329;28;20401;-34
2021/08/23 07:29:36;;;;;;;11.18;5.03;;;24.00;47.10;;;;;;5057648;28;20029;-36
2021/08/23 07:32:02;;;;;;;19.85;9.20;;;24.00;46.90;;;;;;5057243;28;20049;-36
2021/08/23 07:34:28;;;;;;;6.60;4.70;;;24.10;47.70;;;;;;5057422;28;20033;-34
2021/08/23 07:36:53;;;;;;;8.60;5.07;;;24.10;46.90;;;;;;5057165;28;20033;-37
2021/08/23 07:39:19;;;;;;;10.02;4.95;;;24.20;47.40;;;;;;5057337;28;20133;-37
2021/08/23 07:41:45;;;;;;;17.55;8.60;;;24.20;46.80;;;;;;5057041;28;20029;-36
2021/08/23 07:44:11;;;;;;;12.13;6.53;;;24.30;45.50;;;;;;5056978;28;20039;-35
2021/08/23 07:46:37;;;;;;;14.93;7.47;;;24.40;46.00;;;;;;5057401;28;20029;-34
2021/08/23 07:49:03;;;;;;;20.30;10.93;;;24.40;46.10;;;;;;5056781;28;20055;-34
2021/08/23 07:51:28;;;;;;;14.38;7.00;;;24.50;46.20;;;;;;5057283;28;20355;-35
2021/08/23 07:53:54;;;;;;;15.90;9.52;;;24.50;45.70;;;;;;5056660;28;20032;-36
2021/08/23 07:56:20;;;;;;;15.38;10.82;;;24.60;47.70;;;;;;5057262;28;20052;-37
2021/08/23 07:58:45;;;;;;;33.22;17.75;;;24.60;49.80;;;;;;5056243;28;20054;-35
2021/08/23 08:01:11;;;;;;;31.27;20.15;;;24.70;50.60;;;;;;5056825;28;20079;-34
2021/08/23 08:03:38;;;;;;;34.28;22.75;;;24.80;50.90;;;;;;5056204;28;20060;-35
2021/08/23 08:06:04;;;;;;;19.77;11.85;;;24.80;51.80;;;;;;5057183;28;20107;-36
2021/08/23 08:08:29;;;;;;;33.20;27.67;;;24.90;51.90;;;;;;5056439;28;20060;-35
2021/08/23 08:10:57;;;;;;;18.23;14.90;;;25.00;52.60;;;;;;5056993;28;20055;-36
2021/08/23 08:13:23;;;;;;;11.20;8.10;;;25.00;52.50;;;;;;5056352;28;20033;-34
2021/08/23 08:15:49;;;;;;;11.45;7.75;;;25.00;52.00;;;;;;5055219;28;20056;-36
2021/08/23 08:18:15;;;;;;;14.77;7.82;;;25.00;51.60;;;;;;5056317;28;20115;-36
2021/08/23 08:20:41;;;;;;;11.10;7.18;;;25.00;52.40;;;;;;5056728;28;20203;-35
2021/08/23 08:23:07;;;;;;;16.23;9.07;;;25.10;52.10;;;;;;5056334;28;20029;-35
2021/08/23 08:25:32;;;;;;;9.25;6.93;;;25.10;52.50;;;;;;5056636;28;20037;-36
2021/08/23 08:27:58;;;;;;;9.18;7.18;;;25.10;52.60;;;;;;5056015;28;20036;-37
2021/08/23 08:30:24;;;;;;;15.52;12.73;;;25.10;52.40;;;;;;5056713;28;20033;-37
2021/08/23 08:32:50;;;;;;;11.73;6.95;;;25.10;52.60;;;;;;5053670;28;20043;-36
2021/08/23 08:35:15;;;;;;;15.02;8.13;;;25.20;52.20;;;;;;5056724;28;20170;-34
2021/08/23 08:37:41;;;;;;;11.13;6.90;;;25.20;52.10;;;;;;5056117;28;20108;-37
2021/08/23 08:40:09;;;;;;;12.63;7.47;;;25.20;52.10;;;;;;5056489;28;20029;-33
2021/08/23 08:42:35;;;;;;;10.50;6.88;;;25.20;52.20;;;;;;5055994;28;20052;-36
2021/08/23 08:45:01;;;;;;;11.27;6.68;;;25.20;52.30;;;;;;5056426;28;20493;-35
2021/08/23 08:47:29;;;;;;;10.60;7.03;;;25.30;52.10;;;;;;5055832;28;20131;-34
2021/08/23 08:49:58;;;;;;;10.75;7.43;;;25.30;52.10;;;;;;5056513;28;20379;-34
2021/08/23 08:52:24;;;;;;;8.30;6.00;;;25.40;52.20;;;;;;5055545;28;20033;-34
2021/08/23 08:54:50;;;;;;;7.78;5.65;;;25.50;51.80;;;;;;5055982;28;20037;-34
2021/08/23 08:57:16;;;;;;;7.28;5.63;;;25.50;51.20;;;;;;5055502;28;20104;-36
2021/08/23 08:59:41;;;;;;;6.97;6.30;;;25.50;51.10;;;;;;5051013;28;20044;-36
2021/08/23 09:02:07;;;;;;;8.50;5.63;;;25.60;51.00;;;;;;5055020;28;20051;-37
2021/08/23 09:04:37;;;;;;;9.05;6.10;;;25.60;51.80;;;;;;5055486;28;20136;-36
2021/08/23 09:07:06;;;;;;;9.43;7.20;;;25.70;51.30;;;;;;5055074;28;20105;-33
2021/08/23 09:09:32;;;;;;;11.27;5.18;;;25.70;51.20;;;;;;5054561;28;20037;-34
2021/08/23 09:12:01;;;;;;;7.30;4.88;;;25.80;51.30;;;;;;5055349;28;20021;-33
2021/08/23 09:14:27;;;;;;;10.00;6.03;;;25.80;50.20;;;;;;5055136;28;20113;-34
2021/08/23 09:16:54;;;;;;;8.82;7.57;;;25.90;49.70;;;;;;5054912;28;20080;-34
2021/08/23 09:19:28;;;;;;;9.55;5.30;;;25.90;50.00;;;;;;5055417;28;20025;-34
2021/08/23 09:22:10;;;;;;;7.15;5.28;;;26.00;49.10;;;;;;5054851;28;20029;-36
2021/08/23 09:24:38;;;;;;;12.18;9.88;;;26.00;48.80;;;;;;5055009;28;20113;-36
2021/08/23 09:27:13;;;;;;;7.32;6.50;;;26.00;49.20;;;;;;5054967;28;20024;-34
2021/08/23 09:29:59;;;;;;;11.07;6.90;;;26.00;49.20;;;;;;5054879;28;20171;-34
2021/08/23 09:32:28;;;;;;;5.93;5.32;;;26.00;49.70;;;;;;5054823;28;20436;-35
2021/08/23 09:34:55;;;;;;;10.57;7.97;;;26.10;49.30;;;;;;5055263;28;20037;-39
2021/08/23 09:37:23;;;;;;;8.35;6.03;;;26.10;49.40;;;;;;5045054;28;20056;-34
2021/08/23 09:39:49;;;;;;;6.82;5.07;;;26.20;49.20;;;;;;5034874;28;20097;-34
2021/08/23 09:42:19;;;;;;;9.75;4.68;;;26.20;48.40;;;;;;5034894;28;20340;-35
2021/08/23 09:44:45;;;;;;;;;;;26.30;47.70;;;;;;5035755;28;20030;-37
2021/08/23 09:47:10;;;;;;;9.85;8.23;;;26.30;48.30;;;;;;5034864;28;19920;-35
2021/08/23 09:49:44;;;;;;;9.73;6.63;;;26.40;48.30;;;;;;5034978;28;20040;-38
2021/08/23 09:52:14;;;;;;;43.13;34.95;;;26.40;47.40;;;;;;5035181;28;20034;-34
2021/08/23 09:54:40;;;;;;;12.27;10.60;;;26.50;47.80;;;;;;5035275;28;20302;-39
2021/08/23 09:57:06;;;;;;;14.35;11.13;;;26.60;47.70;;;;;;5034674;28;20037;-38
2021/08/23 09:59:39;;;;;;;12.13;8.98;;;26.70;47.80;;;;;;5034749;28;20494;-38
2021/08/23 10:02:06;;;;;;;10.45;7.47;;;26.70;47.60;;;;;;5034577;28;20041;-35
2021/08/23 10:04:32;;;;;;;7.78;5.78;;;26.80;47.50;;;;;;5034224;28;20089;-35
2021/08/23 10:06:58;;;;;;;9.13;5.18;;;26.80;46.60;;;;;;5034362;28;20034;-34
2021/08/23 10:09:26;;;;;;;8.52;5.80;;;26.80;46.50;;;;;;5034941;28;20041;-35
2021/08/23 10:11:57;;;;;;;13.02;6.40;;;26.90;46.30;;;;;;5034580;28;20025;-35
2021/08/23 10:14:23;;;;;;;22.35;18.20;;;27.00;46.20;;;;;;5033646;28;20092;-35
2021/08/23 10:16:49;;;;;;;14.05;11.50;;;27.00;46.00;;;;;;5034535;28;20050;-38
2021/08/23 10:19:15;;;;;;;10.00;5.55;;;27.00;45.00;;;;;;5034708;28;20029;-35
2021/08/23 10:21:45;;;;;;;15.63;12.98;;;27.00;44.70;;;;;;5038147;28;20025;-35
2021/08/23 10:24:15;;;;;;;8.15;7.00;;;27.00;44.70;;;;;;5038426;28;20048;-35
2021/08/23 10:26:45;;;;;;;8.85;6.78;;;26.90;44.10;;;;;;5038354;28;20052;-37
2021/08/23 10:29:13;;;;;;;6.82;4.47;;;26.90;44.20;;;;;;5037093;28;20447;-38
2021/08/23 10:31:41;;;;;;;5.85;4.15;;;26.80;43.90;;;;;;5038390;28;20376;-37
2021/08/23 10:34:15;;;;;;;5.47;4.32;;;26.80;43.90;;;;;;5037854;28;20443;-37
2021/08/23 10:36:42;;;;;;;6.63;4.18;;;26.80;43.60;;;;;;5038561;28;20068;-34
2021/08/23 10:39:08;;;;;;;4.13;3.40;;;26.70;44.00;;;;;;5037561;28;20025;-35
2021/08/23 10:41:35;;;;;;;7.30;3.60;;;26.70;43.90;;;;;;5037864;28;20038;-35
2021/08/23 10:44:06;;;;;;;6.30;4.32;;;26.70;43.80;;;;;;5037910;28;20110;-38
2021/08/23 10:46:37;;;;;;;5.80;3.22;;;26.70;43.60;;;;;;5038012;28;20364;-35
2021/08/23 10:49:25;;;;;;;6.53;3.38;;;26.70;43.40;;;;;;5037946;28;20017;-35
2021/08/23 10:51:58;;;;;;;6.55;3.03;;;26.70;43.10;;;;;;5038027;28;20034;-35
2021/08/23 10:54:33;;;;;;;7.82;4.00;;;26.70;43.10;;;;;;5037870;28;20172;-37
2021/08/23 10:57:01;;;;;;;5.80;3.80;;;26.70;44.00;;;;;;5037922;28;20036;-35
2021/08/23 10:59:48;;;;;;;4.40;3.97;;;26.60;44.50;;;;;;5037764;28;20075;-36
2021/08/23 11:02:16;;;;;;;9.45;4.15;;;26.60;44.40;;;;;;5037417;28;20434;-36
2021/08/23 11:04:55;;;;;;;7.85;5.63;;;26.60;44.10;;;;;;5037375;28;20140;-34
2021/08/23 11:07:31;;;;;;;4.80;3.25;;;26.70;44.50;;;;;;5057652;28;20017;-37
2021/08/23 11:10:15;;;;;;;6.45;4.40;;;26.70;44.30;;;;;;5057077;28;20104;-37
2021/08/23 11:12:47;;;;;;;12.35;6.82;;;26.80;44.80;;;;;;5057355;28;20036;-36
2021/08/23 11:15:29;;;;;;;11.13;4.93;;;26.90;44.60;;;;;;5057474;28;20108;-37
2021/08/23 11:18:03;;;;;;;6.47;4.13;;;27.00;44.60;;;;;;5057201;28;20425;-35
2021/08/23 11:20:51;;;;;;;6.82;4.00;;;27.20;44.60;;;;;;5057694;28;20040;-35
2021/08/23 11:23:25;;;;;;;8.68;6.43;;;27.30;44.30;;;;;;5057169;28;20259;-36
2021/08/23 11:25:54;;;;;;;8.48;4.30;;;27.40;43.80;;;;;;5058018;28;20032;-37
2021/08/23 11:28:27;;;;;;;10.10;5.70;;;27.50;43.30;;;;;;5057067;28;20033;-37
2021/08/23 11:30:56;;;;;;;9.52;6.10;;;27.70;43.40;;;;;;5056325;28;20429;-35
2021/08/23 11:33:28;;;;;;;8.90;6.22;;;27.80;43.60;;;;;;5056186;28;20364;-35
2021/08/23 11:35:55;;;;;;;18.50;5.20;;;27.90;43.50;;;;;;5057312;28;20120;-36
2021/08/23 11:38:27;;;;;;;7.53;4.43;;;28.00;43.40;;;;;;5057261;28;20041;-36
2021/08/23 11:40:53;;;;;;;6.25;4.28;;;28.10;42.60;;;;;;5057568;28;20036;-35
2021/08/23 11:43:19;;;;;;;10.35;4.95;;;28.30;42.20;;;;;;5056759;28;20039;-36
2021/08/23 11:45:46;;;;;;;8.80;5.22;;;28.40;42.20;;;;;;5057286;28;20313;-36
2021/08/23 11:48:12;;;;;;;5.78;3.45;;;28.60;42.00;;;;;;5056867;28;20354;-35
2021/08/23 11:50:38;;;;;;;6.40;4.28;;;28.80;41.80;;;;;;5056509;28;20033;-36
2021/08/23 11:53:12;;;;;;;9.40;5.28;;;28.90;41.40;;;;;;5056318;28;20040;-35
2021/08/23 11:55:42;;;;;;;12.07;8.15;;;29.00;41.60;;;;;;5057561;28;20056;-35
2021/08/23 11:58:12;;;;;;;5.00;4.50;;;29.20;41.50;;;;;;5057060;28;20029;-35
2021/08/23 12:00:40;;;;;;;7.75;5.10;;;29.30;40.00;;;;;;5056960;28;20037;-35
2021/08/23 12:03:12;;;;;;;6.30;4.00;;;29.50;40.60;;;;;;5057235;28;20415;-35
2021/08/23 12:05:43;;;;;;;3.88;3.05;;;29.60;40.00;;;;;;5057407;28;20045;-36
2021/08/23 12:08:27;;;;;;;6.55;5.45;;;29.70;39.60;;;;;;5057311;28;20017;-37
2021/08/23 12:11:01;;;;;;;5.38;4.38;;;29.90;39.00;;;;;;5057480;28;20325;-35
2021/08/23 12:14:02;;;;;;;5.78;3.92;;;30.00;38.00;;;;;;5057099;28;20104;-35
2021/08/23 12:16:36;;;;;;;6.35;3.42;;;30.00;38.50;;;;;;5053158;28;20045;-35
2021/08/23 12:19:09;;;;;;;4.35;3.20;;;30.10;38.70;;;;;;5056503;28;20317;-36
2021/08/23 12:21:36;;;;;;;4.38;3.75;;;30.10;39.40;;;;;;5057108;28;20021;-35
2021/08/23 12:24:08;;;;;;;6.00;4.53;;;30.10;38.40;;;;;;5056644;28;20082;-35
2021/08/23 12:26:39;;;;;;;4.72;4.20;;;30.10;38.60;;;;;;5056673;28;20086;-36
2021/08/23 12:29:17;;;;;;;4.15;2.80;;;30.00;38.90;;;;;;5056824;28;20036;-35
2021/08/23 12:31:52;;;;;;;5.95;4.65;;;30.10;37.50;;;;;;5056749;28;20064;-35
2021/08/23 12:34:21;;;;;;;5.78;3.60;;;30.20;38.40;;;;;;5056874;28;20033;-36
2021/08/23 12:36:47;;;;;;;4.60;4.20;;;30.20;37.50;;;;;;5056767;28;20025;-34
2021/08/23 12:39:14;;;;;;;6.10;3.22;;;30.30;37.10;;;;;;5056497;28;20421;-35
2021/08/23 12:41:42;;;;;;;4.35;3.40;;;30.40;37.70;;;;;;5056346;28;20044;-37